sensor_id;sensor_type;location;lat;lon;timestamp;pressure;altitude;pressure_sealevel;temperature;humidity
32083;BME280;18597;48.328;7.932;2023-03-15T00:02:00;99377.78;;;3.21;100.00
32083;BME280;18597;48.328;7.932;2023-03-15T00:04:27;99380.56;;;3.33;100.00
32083;BME280;18597;48.328;7.932;2023-03-15T00:06:53;99382.16;;;3.36;100.00
32083;BME280;18597;48.328;7.932;2023-03-15T00:09:20;99376.78;;;3.38;100.00
32083;BME280;18597;48.328;7.932;2023-03-15T00:11:47;99396.31;;;3.35;100.00
32083;BME280;18597;48.328;7.932;2023-03-15T00:18:21;99407.97;;;3.31;100.00
32083;BME280;18597;48.328;7.932;2023-03-15T00:20:47;99418.91;;;3.25;100.00
32083;BME280;18597;48.328;7.932;2023-03-15T00:23:14;99419.09;;;3.22;100.00
32083;BME280;18597;48.328;7.932;2023-03-15T00:25:44;99438.06;;;2.98;100.00
32083;BME280;18597;48.328;7.932;2023-03-15T00:28:10;99440.81;;;2.81;100.00
32083;BME280;18597;48.328;7.932;2023-03-15T00:30:37;99442.66;;;2.95;100.00
32083;BME280;18597;48.328;7.932;2023-03-15T00:33:02;99447.47;;;2.72;100.00
32083;BME280;18597;48.328;7.932;2023-03-15T00:35:31;99449.16;;;2.58;100.00
32083;BME280;18597;48.328;7.932;2023-03-15T00:37:59;99450.69;;;2.46;100.00
32083;BME280;18597;48.328;7.932;2023-03-15T00:40:25;99458.50;;;2.47;100.00
32083;BME280;18597;48.328;7.932;2023-03-15T00:42:51;99462.09;;;2.46;100.00
32083;BME280;18597;48.328;7.932;2023-03-15T00:45:20;99461.41;;;2.43;100.00
32083;BME280;18597;48.328;7.932;2023-03-15T00:47:49;99466.84;;;2.40;100.00
32083;BME280;18597;48.328;7.932;2023-03-15T00:50:15;99467.00;;;2.21;100.00
32083;BME280;18597;48.328;7.932;2023-03-15T00:52:41;99467.03;;;2.04;100.00
32083;BME280;18597;48.328;7.932;2023-03-15T00:55:11;99475.44;;;1.94;100.00
32083;BME280;18597;48.328;7.932;2023-03-15T00:57:40;99475.50;;;1.93;100.00
32083;BME280;18597;48.328;7.932;2023-03-15T01:00:12;99477.69;;;1.85;100.00
32083;BME280;18597;48.328;7.932;2023-03-15T01:02:39;99473.84;;;1.75;100.00
32083;BME280;18597;48.328;7.932;2023-03-15T01:05:07;99480.66;;;1.79;100.00
32083;BME280;18597;48.328;7.932;2023-03-15T01:07:33;99486.53;;;1.84;100.00
32083;BME280;18597;48.328;7.932;2023-03-15T01:10:01;99494.13;;;1.90;100.00
32083;BME280;18597;48.328;7.932;2023-03-15T01:12:31;99480.38;;;2.01;100.00
32083;BME280;18597;48.328;7.932;2023-03-15T01:14:58;99493.69;;;2.15;100.00
32083;BME280;18597;48.328;7.932;2023-03-15T01:17:25;99500.28;;;2.06;100.00
32083;BME280;18597;48.328;7.932;2023-03-15T01:19:51;99499.75;;;2.00;100.00
32083;BME280;18597;48.328;7.932;2023-03-15T01:22:18;99504.97;;;1.84;100.00
32083;BME280;18597;48.328;7.932;2023-03-15T01:24:44;99500.22;;;2.08;100.00
32083;BME280;18597;48.328;7.932;2023-03-15T01:27:10;99508.78;;;2.11;100.00
32083;BME280;18597;48.328;7.932;2023-03-15T01:29:36;99505.34;;;1.93;100.00
32083;BME280;18597;48.328;7.932;2023-03-15T01:32:02;99500.97;;;1.77;100.00
32083;BME280;18597;48.328;7.932;2023-03-15T01:34:28;99514.50;;;1.86;100.00
32083;BME280;18597;48.328;7.932;2023-03-15T01:36:54;99511.56;;;1.92;100.00
32083;BME280;18597;48.328;7.932;2023-03-15T01:39:20;99518.06;;;1.85;100.00
32083;BME280;18597;48.328;7.932;2023-03-15T01:41:46;99515.91;;;1.76;100.00
32083;BME280;18597;48.328;7.932;2023-03-15T01:44:15;99532.03;;;1.53;100.00
32083;BME280;18597;48.328;7.932;2023-03-15T01:46:41;99537.34;;;1.34;100.00
32083;BME280;18597;48.328;7.932;2023-03-15T01:49:29;99541.94;;;1.11;100.00
32083;BME280;18597;48.328;7.932;2023-03-15T01:52:04;99541.44;;;1.22;100.00
32083;BME280;18597;48.328;7.932;2023-03-15T01:54:53;99538.25;;;1.33;100.00
32083;BME280;18597;48.328;7.932;2023-03-15T01:57:57;99541.25;;;1.08;100.00
32083;BME280;18597;48.328;7.932;2023-03-15T02:00:16;99543.25;;;1.03;100.00
32083;BME280;18597;48.328;7.932;2023-03-15T02:02:49;99542.78;;;1.12;100.00
32083;BME280;18597;48.328;7.932;2023-03-15T02:05:23;99547.81;;;0.99;100.00
32083;BME280;18597;48.328;7.932;2023-03-15T02:07:51;99549.19;;;0.70;100.00
32083;BME280;18597;48.328;7.932;2023-03-15T02:10:34;99548.47;;;0.48;100.00
32083;BME280;18597;48.328;7.932;2023-03-15T02:13:02;99555.44;;;0.28;100.00
32083;BME280;18597;48.328;7.932;2023-03-15T02:15:28;99560.19;;;0.20;100.00
32083;BME280;18597;48.328;7.932;2023-03-15T02:17:55;99558.84;;;0.12;100.00
32083;BME280;18597;48.328;7.932;2023-03-15T02:21:07;99567.97;;;0.03;100.00
32083;BME280;18597;48.328;7.932;2023-03-15T02:23:31;99569.16;;;-0.04;100.00
32083;BME280;18597;48.328;7.932;2023-03-15T02:28:34;99571.59;;;-0.20;100.00
32083;BME280;18597;48.328;7.932;2023-03-15T02:31:01;99567.19;;;0.01;100.00
32083;BME280;18597;48.328;7.932;2023-03-15T02:33:33;99573.47;;;-0.03;100.00
32083;BME280;18597;48.328;7.932;2023-03-15T02:38:47;99574.53;;;-0.28;100.00
32083;BME280;18597;48.328;7.932;2023-03-15T02:41:21;99575.50;;;-0.10;100.00
32083;BME280;18597;48.328;7.932;2023-03-15T02:43:54;99574.00;;;-0.36;100.00
32083;BME280;18597;48.328;7.932;2023-03-15T02:46:21;99582.19;;;-0.43;100.00
32083;BME280;18597;48.328;7.932;2023-03-15T02:48:49;99575.75;;;-0.57;100.00
32083;BME280;18597;48.328;7.932;2023-03-15T02:51:22;99582.09;;;-0.62;100.00
32083;BME280;18597;48.328;7.932;2023-03-15T02:53:48;99588.19;;;-0.62;100.00
32083;BME280;18597;48.328;7.932;2023-03-15T02:56:15;99591.56;;;-0.58;100.00
32083;BME280;18597;48.328;7.932;2023-03-15T02:58:42;99587.47;;;-0.65;100.00
32083;BME280;18597;48.328;7.932;2023-03-15T03:01:12;99593.13;;;-0.76;100.00
32083;BME280;18597;48.328;7.932;2023-03-15T03:03:40;99590.81;;;-0.84;100.00
32083;BME280;18597;48.328;7.932;2023-03-15T03:06:08;99596.06;;;-0.84;100.00
32083;BME280;18597;48.328;7.932;2023-03-15T03:08:35;99600.75;;;-0.92;100.00
32083;BME280;18597;48.328;7.932;2023-03-15T03:11:01;99601.06;;;-0.99;100.00
32083;BME280;18597;48.328;7.932;2023-03-15T03:13:27;99595.03;;;-1.01;100.00
32083;BME280;18597;48.328;7.932;2023-03-15T03:15:54;99603.97;;;-1.07;100.00
32083;BME280;18597;48.328;7.932;2023-03-15T03:18:28;99611.19;;;-1.12;100.00
32083;BME280;18597;48.328;7.932;2023-03-15T03:20:56;99608.66;;;-1.15;100.00
32083;BME280;18597;48.328;7.932;2023-03-15T03:23:24;99616.59;;;-1.17;100.00
32083;BME280;18597;48.328;7.932;2023-03-15T03:25:53;99614.75;;;-1.15;100.00
32083;BME280;18597;48.328;7.932;2023-03-15T03:28:20;99618.41;;;-1.19;100.00
32083;BME280;18597;48.328;7.932;2023-03-15T03:30:49;99622.13;;;-1.24;100.00
32083;BME280;18597;48.328;7.932;2023-03-15T03:33:15;99626.22;;;-1.17;100.00
32083;BME280;18597;48.328;7.932;2023-03-15T03:35:42;99629.06;;;-1.23;100.00
32083;BME280;18597;48.328;7.932;2023-03-15T03:38:10;99629.19;;;-1.26;100.00
32083;BME280;18597;48.328;7.932;2023-03-15T03:40:37;99628.16;;;-1.22;100.00
32083;BME280;18597;48.328;7.932;2023-03-15T03:43:04;99630.84;;;-1.24;100.00
32083;BME280;18597;48.328;7.932;2023-03-15T03:45:30;99630.47;;;-1.15;100.00
32083;BME280;18597;48.328;7.932;2023-03-15T03:47:56;99633.09;;;-1.15;100.00
32083;BME280;18597;48.328;7.932;2023-03-15T03:50:22;99640.25;;;-1.18;100.00
32083;BME280;18597;48.328;7.932;2023-03-15T03:52:48;99643.38;;;-1.08;100.00
32083;BME280;18597;48.328;7.932;2023-03-15T03:55:14;99634.91;;;-0.93;100.00
32083;BME280;18597;48.328;7.932;2023-03-15T03:57:41;99636.50;;;-0.89;100.00
32083;BME280;18597;48.328;7.932;2023-03-15T04:00:12;99644.09;;;-0.81;100.00
32083;BME280;18597;48.328;7.932;2023-03-15T04:02:39;99644.81;;;-0.78;100.00
32083;BME280;18597;48.328;7.932;2023-03-15T04:05:09;99654.22;;;-0.72;100.00
32083;BME280;18597;48.328;7.932;2023-03-15T04:07:36;99651.28;;;-0.65;100.00
32083;BME280;18597;48.328;7.932;2023-03-15T04:10:02;99655.16;;;-0.51;100.00
32083;BME280;18597;48.328;7.932;2023-03-15T04:12:29;99652.22;;;-0.23;100.00
32083;BME280;18597;48.328;7.932;2023-03-15T04:14:55;99663.94;;;-0.10;100.00
32083;BME280;18597;48.328;7.932;2023-03-15T04:17:21;99665.66;;;-0.09;100.00
32083;BME280;18597;48.328;7.932;2023-03-15T04:19:47;99665.00;;;0.06;100.00
32083;BME280;18597;48.328;7.932;2023-03-15T04:22:12;99672.94;;;-0.16;100.00
32083;BME280;18597;48.328;7.932;2023-03-15T04:24:41;99673.84;;;-0.17;100.00
32083;BME280;18597;48.328;7.932;2023-03-15T04:27:07;99669.72;;;-0.22;100.00
32083;BME280;18597;48.328;7.932;2023-03-15T04:29:33;99666.84;;;-0.38;100.00
32083;BME280;18597;48.328;7.932;2023-03-15T04:31:59;99674.91;;;-0.43;100.00
32083;BME280;18597;48.328;7.932;2023-03-15T04:34:29;99666.66;;;-0.12;100.00
32083;BME280;18597;48.328;7.932;2023-03-15T04:36:55;99674.50;;;0.10;100.00
32083;BME280;18597;48.328;7.932;2023-03-15T04:39:22;99677.72;;;0.17;100.00
32083;BME280;18597;48.328;7.932;2023-03-15T04:41:49;99681.44;;;0.11;100.00
32083;BME280;18597;48.328;7.932;2023-03-15T04:44:15;99682.16;;;0.15;100.00
32083;BME280;18597;48.328;7.932;2023-03-15T04:46:42;99689.19;;;0.35;100.00
32083;BME280;18597;48.328;7.932;2023-03-15T04:49:09;99691.84;;;0.35;100.00
32083;BME280;18597;48.328;7.932;2023-03-15T04:51:35;99685.97;;;0.28;100.00
32083;BME280;18597;48.328;7.932;2023-03-15T04:54:02;99686.84;;;0.28;100.00
32083;BME280;18597;48.328;7.932;2023-03-15T04:56:29;99693.16;;;0.24;100.00
32083;BME280;18597;48.328;7.932;2023-03-15T04:58:55;99695.59;;;0.07;100.00
32083;BME280;18597;48.328;7.932;2023-03-15T05:01:28;99688.13;;;-0.02;100.00
32083;BME280;18597;48.328;7.932;2023-03-15T05:03:56;99693.38;;;-0.02;100.00
32083;BME280;18597;48.328;7.932;2023-03-15T05:06:22;99691.19;;;-0.13;100.00
32083;BME280;18597;48.328;7.932;2023-03-15T05:08:48;99698.75;;;-0.05;100.00
32083;BME280;18597;48.328;7.932;2023-03-15T05:11:14;99695.72;;;-0.16;100.00
32083;BME280;18597;48.328;7.932;2023-03-15T05:13:40;99698.03;;;-0.31;100.00
32083;BME280;18597;48.328;7.932;2023-03-15T05:16:06;99694.06;;;-0.41;100.00
32083;BME280;18597;48.328;7.932;2023-03-15T05:18:31;99697.31;;;-0.34;100.00
32083;BME280;18597;48.328;7.932;2023-03-15T05:20:58;99703.00;;;-0.45;100.00
32083;BME280;18597;48.328;7.932;2023-03-15T05:23:24;99704.88;;;-0.48;100.00
32083;BME280;18597;48.328;7.932;2023-03-15T05:25:52;99699.00;;;-0.55;100.00
32083;BME280;18597;48.328;7.932;2023-03-15T05:28:21;99702.91;;;-0.65;100.00
32083;BME280;18597;48.328;7.932;2023-03-15T05:30:49;99709.19;;;-0.69;100.00
32083;BME280;18597;48.328;7.932;2023-03-15T05:33:16;99709.88;;;-0.88;100.00
32083;BME280;18597;48.328;7.932;2023-03-15T05:35:43;99715.56;;;-0.76;100.00
32083;BME280;18597;48.328;7.932;2023-03-15T05:38:11;99714.31;;;-0.66;100.00
32083;BME280;18597;48.328;7.932;2023-03-15T05:40:44;99715.19;;;-0.66;100.00
32083;BME280;18597;48.328;7.932;2023-03-15T05:43:10;99701.63;;;-0.55;100.00
32083;BME280;18597;48.328;7.932;2023-03-15T05:45:37;99711.47;;;-0.60;100.00
32083;BME280;18597;48.328;7.932;2023-03-15T05:48:04;99712.94;;;-0.76;100.00
32083;BME280;18597;48.328;7.932;2023-03-15T05:50:30;99716.03;;;-0.65;100.00
32083;BME280;18597;48.328;7.932;2023-03-15T05:52:56;99717.59;;;-0.61;100.00
32083;BME280;18597;48.328;7.932;2023-03-15T05:55:23;99717.22;;;-0.50;100.00
32083;BME280;18597;48.328;7.932;2023-03-15T05:57:49;99711.81;;;-0.47;100.00
32083;BME280;18597;48.328;7.932;2023-03-15T06:00:16;99704.50;;;-0.61;100.00
32083;BME280;18597;48.328;7.932;2023-03-15T06:02:45;99708.09;;;-0.64;100.00
32083;BME280;18597;48.328;7.932;2023-03-15T06:05:11;99710.16;;;-0.72;100.00
32083;BME280;18597;48.328;7.932;2023-03-15T06:07:37;99712.94;;;-0.76;100.00
32083;BME280;18597;48.328;7.932;2023-03-15T06:10:04;99709.25;;;-0.71;100.00
32083;BME280;18597;48.328;7.932;2023-03-15T06:12:30;99718.13;;;-0.51;100.00
32083;BME280;18597;48.328;7.932;2023-03-15T06:14:56;99719.69;;;-0.47;100.00
32083;BME280;18597;48.328;7.932;2023-03-15T06:17:22;99728.25;;;-0.42;100.00
32083;BME280;18597;48.328;7.932;2023-03-15T06:19:48;99722.09;;;-0.41;100.00
32083;BME280;18597;48.328;7.932;2023-03-15T06:22:13;99738.81;;;-0.44;100.00
32083;BME280;18597;48.328;7.932;2023-03-15T06:24:39;99731.59;;;-0.39;100.00
32083;BME280;18597;48.328;7.932;2023-03-15T06:27:05;99730.13;;;-0.22;100.00
32083;BME280;18597;48.328;7.932;2023-03-15T06:29:31;99739.78;;;-0.03;100.00
32083;BME280;18597;48.328;7.932;2023-03-15T06:31:57;99739.72;;;0.41;100.00
32083;BME280;18597;48.328;7.932;2023-03-15T06:34:23;99739.22;;;2.92;100.00
32083;BME280;18597;48.328;7.932;2023-03-15T06:36:49;99740.97;;;5.94;100.00
32083;BME280;18597;48.328;7.932;2023-03-15T06:39:17;99736.66;;;8.33;100.00
32083;BME280;18597;48.328;7.932;2023-03-15T06:41:43;99736.78;;;9.80;100.00
32083;BME280;18597;48.328;7.932;2023-03-15T06:44:09;99743.97;;;11.18;71.20
32083;BME280;18597;48.328;7.932;2023-03-15T06:46:35;99757.97;;;10.47;55.58
32083;BME280;18597;48.328;7.932;2023-03-15T06:49:01;99756.94;;;11.13;55.21
32083;BME280;18597;48.328;7.932;2023-03-15T06:51:28;99754.56;;;12.88;58.93
32083;BME280;18597;48.328;7.932;2023-03-15T06:53:54;99751.66;;;14.66;46.83
32083;BME280;18597;48.328;7.932;2023-03-15T06:56:19;99746.53;;;16.19;42.50
32083;BME280;18597;48.328;7.932;2023-03-15T06:58:45;99743.09;;;16.00;38.63
32083;BME280;18597;48.328;7.932;2023-03-15T07:01:13;99747.13;;;17.28;38.29
32083;BME280;18597;48.328;7.932;2023-03-15T07:03:40;99743.69;;;18.68;36.02
32083;BME280;18597;48.328;7.932;2023-03-15T07:06:06;99742.41;;;19.69;33.41
32083;BME280;18597;48.328;7.932;2023-03-15T07:08:32;99751.13;;;20.15;32.19
32083;BME280;18597;48.328;7.932;2023-03-15T07:10:58;99757.50;;;20.59;29.03
32083;BME280;18597;48.328;7.932;2023-03-15T07:13:24;99754.34;;;18.39;32.36
32083;BME280;18597;48.328;7.932;2023-03-15T07:15:52;99757.41;;;18.58;33.57
32083;BME280;18597;48.328;7.932;2023-03-15T07:18:18;99759.09;;;19.43;31.20
32083;BME280;18597;48.328;7.932;2023-03-15T07:20:44;99758.00;;;20.47;30.43
32083;BME280;18597;48.328;7.932;2023-03-15T07:23:10;99757.31;;;21.03;29.11
32083;BME280;18597;48.328;7.932;2023-03-15T07:25:36;99759.56;;;20.06;29.49
32083;BME280;18597;48.328;7.932;2023-03-15T07:28:02;99761.63;;;20.76;29.64
32083;BME280;18597;48.328;7.932;2023-03-15T07:30:28;99754.13;;;20.78;28.93
32083;BME280;18597;48.328;7.932;2023-03-15T07:32:54;99743.06;;;22.26;28.25
32083;BME280;18597;48.328;7.932;2023-03-15T07:35:19;99746.94;;;23.58;26.57
32083;BME280;18597;48.328;7.932;2023-03-15T07:37:46;99737.09;;;24.28;26.14
32083;BME280;18597;48.328;7.932;2023-03-15T07:40:12;99733.47;;;24.79;25.68
32083;BME280;18597;48.328;7.932;2023-03-15T07:42:40;99741.91;;;24.71;24.14
32083;BME280;18597;48.328;7.932;2023-03-15T07:45:07;99746.47;;;21.94;26.66
32083;BME280;18597;48.328;7.932;2023-03-15T07:47:34;99748.25;;;22.89;25.95
32083;BME280;18597;48.328;7.932;2023-03-15T07:50:01;99736.47;;;23.68;25.33
32083;BME280;18597;48.328;7.932;2023-03-15T07:52:28;99747.00;;;23.31;25.78
32083;BME280;18597;48.328;7.932;2023-03-15T07:54:54;99743.63;;;23.42;26.23
32083;BME280;18597;48.328;7.932;2023-03-15T07:57:20;99745.72;;;21.44;27.08
32083;BME280;18597;48.328;7.932;2023-03-15T07:59:46;99735.91;;;21.43;27.77
32083;BME280;18597;48.328;7.932;2023-03-15T08:02:12;99734.13;;;22.46;27.41
32083;BME280;18597;48.328;7.932;2023-03-15T08:04:39;99741.53;;;23.18;25.52
32083;BME280;18597;48.328;7.932;2023-03-15T08:07:06;99743.88;;;23.08;25.25
32083;BME280;18597;48.328;7.932;2023-03-15T08:09:32;99737.56;;;22.94;27.31
32083;BME280;18597;48.328;7.932;2023-03-15T08:12:00;99732.16;;;24.56;27.21
32083;BME280;18597;48.328;7.932;2023-03-15T08:14:27;99732.25;;;25.93;24.90
32083;BME280;18597;48.328;7.932;2023-03-15T08:16:53;99730.38;;;26.05;24.10
32083;BME280;18597;48.328;7.932;2023-03-15T08:19:19;99729.94;;;25.71;24.24
32083;BME280;18597;48.328;7.932;2023-03-15T08:21:46;99723.75;;;23.22;27.67
32083;BME280;18597;48.328;7.932;2023-03-15T08:24:13;99728.84;;;19.69;31.99
32083;BME280;18597;48.328;7.932;2023-03-15T08:26:40;99724.19;;;16.51;36.33
32083;BME280;18597;48.328;7.932;2023-03-15T08:29:08;99735.09;;;14.07;41.37
32083;BME280;18597;48.328;7.932;2023-03-15T08:31:34;99735.34;;;11.96;44.69
32083;BME280;18597;48.328;7.932;2023-03-15T08:34:00;99752.06;;;9.44;51.79
32083;BME280;18597;48.328;7.932;2023-03-15T08:36:25;99747.56;;;9.00;55.02
32083;BME280;18597;48.328;7.932;2023-03-15T08:38:51;99744.00;;;8.53;59.94
32083;BME280;18597;48.328;7.932;2023-03-15T08:41:17;99749.22;;;8.31;68.00
32083;BME280;18597;48.328;7.932;2023-03-15T08:43:43;99749.78;;;7.99;65.91
32083;BME280;18597;48.328;7.932;2023-03-15T08:46:09;99755.16;;;7.87;71.27
32083;BME280;18597;48.328;7.932;2023-03-15T08:48:35;99757.81;;;7.87;69.78
32083;BME280;18597;48.328;7.932;2023-03-15T08:51:03;99762.22;;;7.99;71.90
32083;BME280;18597;48.328;7.932;2023-03-15T08:53:30;99766.53;;;8.13;68.01
32083;BME280;18597;48.328;7.932;2023-03-15T08:55:56;99774.00;;;8.07;62.62
32083;BME280;18597;48.328;7.932;2023-03-15T08:58:22;99766.78;;;8.10;64.56
32083;BME280;18597;48.328;7.932;2023-03-15T09:00:49;99774.50;;;7.89;61.54
32083;BME280;18597;48.328;7.932;2023-03-15T09:03:17;99776.47;;;7.74;65.16
32083;BME280;18597;48.328;7.932;2023-03-15T09:05:44;99789.63;;;7.75;66.13
32083;BME280;18597;48.328;7.932;2023-03-15T09:08:10;99781.53;;;7.77;67.92
32083;BME280;18597;48.328;7.932;2023-03-15T09:10:36;99779.94;;;7.87;68.68
32083;BME280;18597;48.328;7.932;2023-03-15T09:13:02;99785.69;;;8.18;67.32
32083;BME280;18597;48.328;7.932;2023-03-15T09:15:28;99780.00;;;8.59;63.14
32083;BME280;18597;48.328;7.932;2023-03-15T09:17:54;99786.78;;;8.98;58.71
32083;BME280;18597;48.328;7.932;2023-03-15T09:20:20;99793.41;;;9.39;55.79
32083;BME280;18597;48.328;7.932;2023-03-15T09:22:52;99794.41;;;9.83;55.21
32083;BME280;18597;48.328;7.932;2023-03-15T09:25:19;99785.38;;;10.06;52.05
32083;BME280;18597;48.328;7.932;2023-03-15T09:27:45;99791.28;;;10.32;51.15
32083;BME280;18597;48.328;7.932;2023-03-15T09:30:12;99794.38;;;10.60;47.02
32083;BME280;18597;48.328;7.932;2023-03-15T09:32:39;99800.56;;;10.60;47.78
32083;BME280;18597;48.328;7.932;2023-03-15T09:35:07;99805.97;;;10.38;49.04
32083;BME280;18597;48.328;7.932;2023-03-15T09:37:35;99803.31;;;10.26;49.25
32083;BME280;18597;48.328;7.932;2023-03-15T09:40:01;99798.44;;;10.43;50.17
32083;BME280;18597;48.328;7.932;2023-03-15T09:46:24;99804.66;;;10.10;51.32
32083;BME280;18597;48.328;7.932;2023-03-15T09:49:46;99807.34;;;10.10;50.00
32083;BME280;18597;48.328;7.932;2023-03-15T09:52:49;99789.66;;;9.97;48.63
32083;BME280;18597;48.328;7.932;2023-03-15T09:55:30;99804.69;;;9.87;50.23
32083;BME280;18597;48.328;7.932;2023-03-15T09:58:22;99801.28;;;9.52;47.13
32083;BME280;18597;48.328;7.932;2023-03-15T10:00:43;99804.56;;;9.55;47.64
32083;BME280;18597;48.328;7.932;2023-03-15T10:03:35;99809.88;;;9.44;49.14
32083;BME280;18597;48.328;7.932;2023-03-15T10:06:23;99814.16;;;9.47;48.98
32083;BME280;18597;48.328;7.932;2023-03-15T10:08:57;99806.63;;;9.52;49.08
32083;BME280;18597;48.328;7.932;2023-03-15T10:12:07;99813.41;;;9.33;50.10
32083;BME280;18597;48.328;7.932;2023-03-15T10:17:23;99804.03;;;9.28;48.74
32083;BME280;18597;48.328;7.932;2023-03-15T10:19:59;99809.41;;;9.50;50.24
32083;BME280;18597;48.328;7.932;2023-03-15T10:25:26;99804.78;;;10.08;48.04
32083;BME280;18597;48.328;7.932;2023-03-15T10:30:37;99807.97;;;9.91;45.45
32083;BME280;18597;48.328;7.932;2023-03-15T10:33:15;99798.16;;;9.91;46.43
32083;BME280;18597;48.328;7.932;2023-03-15T10:35:45;99795.22;;;10.06;48.13
32083;BME280;18597;48.328;7.932;2023-03-15T10:38:16;99791.94;;;10.56;47.56
32083;BME280;18597;48.328;7.932;2023-03-15T10:40:47;99800.06;;;10.66;46.40
32083;BME280;18597;48.328;7.932;2023-03-15T10:43:27;99789.38;;;10.87;45.35
32083;BME280;18597;48.328;7.932;2023-03-15T10:46:11;99788.69;;;11.06;44.59
32083;BME280;18597;48.328;7.932;2023-03-15T10:48:50;99797.00;;;11.33;44.98
32083;BME280;18597;48.328;7.932;2023-03-15T10:51:29;99795.78;;;11.37;42.18
32083;BME280;18597;48.328;7.932;2023-03-15T10:56:36;99799.16;;;11.39;40.60
32083;BME280;18597;48.328;7.932;2023-03-15T10:59:20;99781.44;;;11.48;40.01
32083;BME280;18597;48.328;7.932;2023-03-15T11:01:47;99799.81;;;11.32;40.84
32083;BME280;18597;48.328;7.932;2023-03-15T11:04:19;99790.03;;;11.21;40.25
32083;BME280;18597;48.328;7.932;2023-03-15T11:09:23;99771.47;;;10.46;42.42
32083;BME280;18597;48.328;7.932;2023-03-15T11:14:40;99781.19;;;11.00;41.05
32083;BME280;18597;48.328;7.932;2023-03-15T11:17:17;99780.50;;;11.28;40.39
32083;BME280;18597;48.328;7.932;2023-03-15T11:20:14;99772.28;;;11.72;41.13
32083;BME280;18597;48.328;7.932;2023-03-15T11:22:49;99768.09;;;12.29;39.95
32083;BME280;18597;48.328;7.932;2023-03-15T11:25:16;99761.88;;;12.38;40.26
32083;BME280;18597;48.328;7.932;2023-03-15T11:27:43;99753.66;;;12.01;40.13
32083;BME280;18597;48.328;7.932;2023-03-15T11:30:14;99760.53;;;11.93;40.29
32083;BME280;18597;48.328;7.932;2023-03-15T11:32:42;99765.16;;;11.82;39.92
32083;BME280;18597;48.328;7.932;2023-03-15T11:38:43;99752.59;;;11.21;39.61
32083;BME280;18597;48.328;7.932;2023-03-15T11:40:58;99761.41;;;10.70;39.14
32083;BME280;18597;48.328;7.932;2023-03-15T11:44:40;99757.53;;;10.63;41.08
32083;BME280;18597;48.328;7.932;2023-03-15T11:47:19;99757.63;;;10.41;39.98
32083;BME280;18597;48.328;7.932;2023-03-15T11:49:55;99753.88;;;10.43;40.95
32083;BME280;18597;48.328;7.932;2023-03-15T11:52:25;99750.94;;;10.46;40.75
32083;BME280;18597;48.328;7.932;2023-03-15T11:54:56;99753.91;;;10.64;40.38
32083;BME280;18597;48.328;7.932;2023-03-15T11:57:43;99757.44;;;10.86;42.38
32083;BME280;18597;48.328;7.932;2023-03-15T12:03:30;99742.22;;;11.28;39.90
32083;BME280;18597;48.328;7.932;2023-03-15T12:06:34;99747.63;;;11.37;39.57
32083;BME280;18597;48.328;7.932;2023-03-15T12:09:01;99733.34;;;11.58;39.33
32083;BME280;18597;48.328;7.932;2023-03-15T12:14:19;99726.09;;;11.79;38.50
32083;BME280;18597;48.328;7.932;2023-03-15T12:16:46;99730.56;;;11.69;37.33
32083;BME280;18597;48.328;7.932;2023-03-15T12:19:18;99742.38;;;12.07;39.22
32083;BME280;18597;48.328;7.932;2023-03-15T12:21:52;99733.25;;;12.38;37.60
32083;BME280;18597;48.328;7.932;2023-03-15T12:24:29;99721.84;;;12.46;38.02
32083;BME280;18597;48.328;7.932;2023-03-15T12:27:04;99717.63;;;12.63;37.19
32083;BME280;18597;48.328;7.932;2023-03-15T12:29:32;99715.06;;;12.52;36.42
32083;BME280;18597;48.328;7.932;2023-03-15T12:34:53;99708.28;;;11.59;38.46
32083;BME280;18597;48.328;7.932;2023-03-15T12:37:29;99707.94;;;11.43;39.64
32083;BME280;18597;48.328;7.932;2023-03-15T12:53:39;99711.44;;;10.29;40.81
32083;BME280;18597;48.328;7.932;2023-03-15T12:56:33;99722.41;;;10.47;40.10
32083;BME280;18597;48.328;7.932;2023-03-15T12:59:14;99717.94;;;10.68;40.17
32083;BME280;18597;48.328;7.932;2023-03-15T13:01:42;99723.47;;;10.76;40.16
32083;BME280;18597;48.328;7.932;2023-03-15T13:04:09;99710.03;;;10.88;40.42
32083;BME280;18597;48.328;7.932;2023-03-15T13:10:11;99705.16;;;11.54;38.75
32083;BME280;18597;48.328;7.932;2023-03-15T13:16:35;99692.38;;;12.27;38.69
32083;BME280;18597;48.328;7.932;2023-03-15T13:19:20;99694.47;;;12.23;36.11
32083;BME280;18597;48.328;7.932;2023-03-15T13:22:51;99690.13;;;12.22;38.22
32083;BME280;18597;48.328;7.932;2023-03-15T13:25:34;99687.44;;;12.22;37.60
32083;BME280;18597;48.328;7.932;2023-03-15T13:28:20;99684.47;;;12.44;37.24
32083;BME280;18597;48.328;7.932;2023-03-15T13:30:50;99682.78;;;12.53;35.67
32083;BME280;18597;48.328;7.932;2023-03-15T13:33:28;99677.44;;;12.34;37.87
32083;BME280;18597;48.328;7.932;2023-03-15T13:36:00;99675.59;;;12.05;38.11
32083;BME280;18597;48.328;7.932;2023-03-15T13:38:38;99680.50;;;11.90;37.98
32083;BME280;18597;48.328;7.932;2023-03-15T13:41:14;99683.69;;;11.75;39.07
32083;BME280;18597;48.328;7.932;2023-03-15T13:43:41;99686.19;;;11.66;39.49
32083;BME280;18597;48.328;7.932;2023-03-15T13:46:08;99698.03;;;11.33;39.04
32083;BME280;18597;48.328;7.932;2023-03-15T13:48:39;99690.44;;;11.29;39.79
32083;BME280;18597;48.328;7.932;2023-03-15T13:51:15;99682.66;;;11.26;40.10
32083;BME280;18597;48.328;7.932;2023-03-15T13:53:42;99684.06;;;11.20;40.30
32083;BME280;18597;48.328;7.932;2023-03-15T13:56:09;99682.75;;;11.15;40.66
32083;BME280;18597;48.328;7.932;2023-03-15T13:58:40;99681.59;;;11.07;41.67
32083;BME280;18597;48.328;7.932;2023-03-15T14:01:09;99684.47;;;10.95;42.04
32083;BME280;18597;48.328;7.932;2023-03-15T14:03:38;99687.06;;;10.75;42.42
32083;BME280;18597;48.328;7.932;2023-03-15T14:06:12;99688.03;;;10.53;41.83
32083;BME280;18597;48.328;7.932;2023-03-15T14:08:45;99695.28;;;10.31;42.41
32083;BME280;18597;48.328;7.932;2023-03-15T14:14:00;99695.63;;;9.94;43.76
32083;BME280;18597;48.328;7.932;2023-03-15T14:16:41;99705.38;;;9.84;44.25
32083;BME280;18597;48.328;7.932;2023-03-15T14:19:27;99702.50;;;9.53;46.15